createdAt,value
2022-11-25T00:01:26.025Z,8.30
2022-11-25T00:03:54.173Z,8.30
2022-11-25T00:06:22.169Z,8.20
2022-11-25T00:08:54.243Z,8.20
2022-11-25T00:11:21.181Z,8.20
2022-11-25T00:13:48.511Z,8.20
2022-11-25T00:16:16.750Z,8.20
2022-11-25T00:18:47.523Z,8.20
2022-11-25T00:21:15.241Z,8.20
2022-11-25T00:23:42.167Z,8.30
2022-11-25T00:26:08.883Z,8.20
2022-11-25T00:28:36.053Z,8.30
2022-11-25T00:31:19.458Z,8.30
2022-11-25T00:33:46.498Z,8.30
2022-11-25T00:36:23.310Z,8.30
2022-11-25T00:38:57.197Z,8.30
2022-11-25T00:41:42.714Z,8.30
2022-11-25T00:44:29.017Z,8.40
2022-11-25T00:46:55.959Z,8.40
2022-11-25T00:49:22.638Z,8.40
2022-11-25T00:51:49.968Z,8.40
2022-11-25T00:54:16.712Z,8.40
2022-11-25T00:56:43.806Z,8.40
2022-11-25T00:59:10.769Z,8.40
2022-11-25T01:01:37.870Z,8.40
2022-11-25T01:04:05.310Z,8.30
2022-11-25T01:06:32.032Z,8.40
2022-11-25T01:08:58.770Z,8.30
2022-11-25T01:11:26.013Z,8.40
2022-11-25T01:14:00.628Z,8.40
2022-11-25T01:16:28.455Z,8.40
2022-11-25T01:18:55.171Z,8.40
2022-11-25T01:21:23.687Z,8.40
2022-11-25T01:23:50.938Z,8.40
2022-11-25T01:26:19.421Z,8.50
2022-11-25T01:28:47.219Z,8.50
2022-11-25T01:31:18.619Z,8.50
2022-11-25T01:33:46.065Z,8.40
2022-11-25T01:36:17.331Z,8.50
2022-11-25T01:38:44.383Z,8.50
2022-11-25T01:41:14.505Z,8.50
2022-11-25T01:43:41.399Z,8.50
2022-11-25T01:46:11.294Z,8.50
2022-11-25T01:48:41.830Z,8.50
2022-11-25T01:51:27.699Z,8.50
2022-11-25T01:53:58.874Z,8.50
2022-11-25T01:56:27.570Z,8.50
2022-11-25T01:58:54.551Z,8.50
2022-11-25T02:01:21.965Z,8.50
2022-11-25T02:03:51.203Z,8.50
2022-11-25T02:06:23.338Z,8.50
2022-11-25T02:08:51.850Z,8.50
2022-11-25T02:11:19.632Z,8.50
2022-11-25T02:13:47.576Z,8.50
2022-11-25T02:16:14.468Z,8.50
2022-11-25T02:18:41.438Z,8.50
2022-11-25T02:21:08.704Z,8.50
2022-11-25T02:23:51.871Z,8.60
2022-11-25T02:26:18.942Z,8.60
2022-11-25T02:28:46.246Z,8.60
2022-11-25T02:31:12.987Z,8.60
2022-11-25T02:33:39.918Z,8.70
2022-11-25T02:36:10.701Z,8.70
2022-11-25T02:38:45.805Z,8.60
2022-11-25T02:41:21.792Z,8.70
2022-11-25T02:43:48.682Z,8.70
2022-11-25T02:46:21.950Z,8.70
2022-11-25T02:51:36.990Z,8.70
2022-11-25T02:54:03.789Z,8.70
2022-11-25T02:56:32.411Z,8.70
2022-11-25T02:58:59.669Z,8.70
2022-11-25T03:01:26.912Z,8.70
2022-11-25T03:03:53.841Z,8.80
2022-11-25T03:06:20.589Z,8.70
2022-11-25T03:08:47.420Z,8.70
2022-11-25T03:11:14.139Z,8.80
2022-11-25T03:13:41.191Z,8.80
2022-11-25T03:16:08.039Z,8.80
2022-11-25T03:18:34.948Z,8.80
2022-11-25T03:21:02.063Z,8.80
2022-11-25T03:23:28.815Z,8.80
2022-11-25T03:25:55.626Z,8.80
2022-11-25T03:28:22.441Z,8.80
2022-11-25T03:30:49.147Z,8.80
2022-11-25T03:33:15.838Z,8.80
2022-11-25T03:35:42.550Z,8.80
2022-11-25T03:38:09.290Z,8.80
2022-11-25T03:40:36.070Z,8.80
2022-11-25T03:43:02.981Z,8.80
2022-11-25T03:45:29.762Z,8.80
2022-11-25T03:47:56.493Z,8.80
2022-11-25T03:50:23.299Z,8.80
2022-11-25T03:52:50.180Z,8.80
2022-11-25T03:55:17.038Z,8.80
2022-11-25T03:57:43.821Z,8.70
2022-11-25T04:00:11.041Z,8.70
2022-11-25T04:02:37.896Z,8.70
2022-11-25T04:05:05.721Z,8.70
2022-11-25T04:07:33.175Z,8.70
2022-11-25T04:10:00.091Z,8.70
2022-11-25T04:12:45.740Z,8.70
2022-11-25T04:15:12.966Z,8.70
2022-11-25T04:17:40.459Z,8.70
2022-11-25T04:20:07.447Z,8.70
2022-11-25T04:22:37.251Z,8.70
2022-11-25T04:25:04.457Z,8.70
2022-11-25T04:27:31.374Z,8.70
2022-11-25T04:29:58.261Z,8.70
2022-11-25T04:32:25.122Z,8.60
2022-11-25T04:34:51.880Z,8.60
2022-11-25T04:37:18.610Z,8.60
2022-11-25T04:39:45.305Z,8.60
2022-11-25T04:42:30.715Z,8.50
2022-11-25T04:45:21.437Z,8.50
2022-11-25T04:47:45.058Z,8.40
2022-11-25T04:50:15.976Z,8.40
2022-11-25T04:52:42.801Z,8.40
2022-11-25T04:55:09.845Z,8.30
2022-11-25T04:57:36.549Z,8.30
2022-11-25T05:00:04.511Z,8.20
2022-11-25T05:02:31.272Z,8.10
2022-11-25T05:04:58.580Z,8.10
2022-11-25T05:07:26.664Z,8.00
2022-11-25T05:09:53.681Z,7.90
2022-11-25T05:12:22.413Z,7.90
2022-11-25T05:14:49.686Z,7.80
2022-11-25T05:17:18.139Z,7.80
2022-11-25T05:19:46.131Z,7.80
2022-11-25T05:22:24.831Z,7.70
2022-11-25T05:24:51.984Z,7.70
2022-11-25T05:27:19.141Z,7.60
2022-11-25T05:29:48.222Z,7.60
2022-11-25T05:32:17.542Z,7.60
2022-11-25T05:34:44.674Z,7.50
2022-11-25T05:37:13.433Z,7.50
2022-11-25T05:39:40.193Z,7.40
2022-11-25T05:42:06.926Z,7.40
2022-11-25T05:47:21.819Z,7.40
2022-11-25T05:49:48.765Z,7.40
2022-11-25T05:52:15.566Z,7.40
2022-11-25T05:54:42.232Z,7.40
2022-11-25T05:57:09.069Z,7.30
2022-11-25T05:59:35.887Z,7.30
2022-11-25T06:02:02.632Z,7.30
2022-11-25T06:04:29.422Z,7.30
2022-11-25T06:06:56.188Z,7.40
2022-11-25T06:09:23.035Z,7.40
2022-11-25T06:11:49.821Z,7.40
2022-11-25T06:14:17.785Z,7.40
2022-11-25T06:16:44.984Z,7.30
2022-11-25T06:19:11.803Z,7.30
2022-11-25T06:21:38.581Z,7.40
2022-11-25T06:24:05.503Z,7.40
2022-11-25T06:26:32.345Z,7.40
2022-11-25T06:29:03.734Z,7.30
2022-11-25T06:31:30.570Z,7.30
2022-11-25T06:33:57.404Z,7.20
2022-11-25T06:36:24.212Z,7.20
2022-11-25T06:38:52.277Z,7.20
2022-11-25T06:41:19.375Z,7.20
2022-11-25T06:43:46.164Z,7.20
2022-11-25T06:46:16.389Z,7.20
2022-11-25T06:48:45.485Z,7.20
2022-11-25T06:51:13.072Z,7.20
2022-11-25T06:53:40.166Z,7.30
2022-11-25T06:56:07.390Z,7.20
2022-11-25T06:58:36.393Z,7.20
2022-11-25T07:01:06.773Z,7.20
2022-11-25T07:03:33.980Z,7.10
2022-11-25T07:06:01.003Z,7.10
2022-11-25T07:08:32.444Z,7.10
2022-11-25T07:11:20.933Z,7.10
2022-11-25T07:13:48.236Z,7.00
2022-11-25T07:16:16.492Z,7.00
2022-11-25T07:18:43.337Z,7.00
2022-11-25T07:21:14.244Z,6.90
2022-11-25T07:23:41.575Z,6.90
2022-11-25T07:26:10.609Z,6.90
2022-11-25T07:28:38.326Z,6.90
2022-11-25T07:31:27.098Z,6.90
2022-11-25T07:33:59.720Z,6.90
2022-11-25T07:36:30.578Z,6.90
2022-11-25T07:39:01.293Z,6.90
2022-11-25T07:41:28.566Z,6.90
2022-11-25T07:43:57.118Z,6.90
2022-11-25T07:46:27.346Z,6.90
2022-11-25T07:48:58.748Z,6.90
2022-11-25T07:51:26.972Z,7.00
2022-11-25T07:53:55.343Z,7.00
2022-11-25T07:56:22.509Z,7.10
2022-11-25T07:58:49.271Z,7.10
2022-11-25T08:01:17.387Z,7.10
2022-11-25T08:03:45.060Z,7.10
2022-11-25T08:06:13.103Z,7.20
2022-11-25T08:08:41.280Z,7.20
2022-11-25T08:11:18.213Z,7.20
2022-11-25T08:13:45.171Z,7.30
2022-11-25T08:16:13.325Z,7.50
2022-11-25T08:18:40.582Z,7.90
2022-11-25T08:21:09.760Z,8.40
2022-11-25T08:23:37.221Z,8.60
2022-11-25T08:26:08.124Z,9.00
2022-11-25T08:28:35.442Z,9.20
2022-11-25T08:31:03.782Z,9.50
2022-11-25T08:33:30.526Z,10.00
2022-11-25T08:35:59.453Z,10.50
2022-11-25T08:38:26.269Z,10.70
2022-11-25T08:40:53.344Z,10.40
2022-11-25T08:43:26.380Z,9.70
2022-11-25T08:45:55.903Z,9.30
2022-11-25T08:48:22.672Z,9.00
2022-11-25T08:50:51.125Z,8.80
2022-11-25T08:53:18.399Z,8.80
2022-11-25T08:55:45.245Z,8.60
2022-11-25T08:58:13.199Z,8.60
2022-11-25T09:00:40.806Z,8.50
2022-11-25T09:03:07.603Z,8.50
2022-11-25T09:05:37.860Z,8.50
2022-11-25T09:08:05.658Z,8.50
2022-11-25T09:10:34.701Z,8.50
2022-11-25T09:13:01.846Z,8.50
2022-11-25T09:15:28.780Z,8.50
2022-11-25T09:17:59.562Z,8.60
2022-11-25T09:20:28.974Z,8.60
2022-11-25T09:22:55.851Z,8.70
2022-11-25T09:25:22.985Z,9.00
2022-11-25T09:27:49.696Z,10.70
2022-11-25T09:30:16.904Z,12.20
2022-11-25T09:32:44.432Z,13.30
2022-11-25T09:35:12.043Z,13.70
2022-11-25T09:37:38.947Z,13.90
2022-11-25T09:40:07.404Z,14.00
2022-11-25T09:43:00.639Z,13.90
2022-11-25T09:46:08.918Z,14.40
2022-11-25T09:48:38.697Z,14.50
2022-11-25T09:51:28.328Z,14.10
2022-11-25T09:53:58.908Z,13.80
2022-11-25T09:56:54.769Z,13.30
2022-11-25T09:59:31.760Z,12.80
2022-11-25T10:02:04.630Z,12.20
2022-11-25T10:04:33.691Z,11.80
2022-11-25T10:07:02.264Z,11.60
2022-11-25T10:09:30.841Z,12.00
2022-11-25T10:12:14.229Z,12.30
2022-11-25T10:14:51.666Z,11.90
2022-11-25T10:17:24.035Z,11.60
2022-11-25T10:19:55.355Z,11.40
2022-11-25T10:22:26.008Z,11.50
2022-11-25T10:24:58.819Z,11.80
2022-11-25T10:27:28.679Z,12.00
2022-11-25T10:30:13.164Z,12.20
2022-11-25T10:32:44.720Z,12.30
2022-11-25T10:35:18.919Z,12.10
2022-11-25T10:37:45.942Z,12.20
2022-11-25T10:40:16.913Z,12.10
2022-11-25T10:42:44.074Z,12.20
2022-11-25T10:45:11.861Z,12.20
2022-11-25T10:47:57.288Z,12.50
2022-11-25T10:50:29.557Z,12.50
2022-11-25T10:52:59.132Z,13.10
2022-11-25T10:55:27.522Z,13.40
2022-11-25T10:57:54.607Z,13.20
2022-11-25T11:00:35.511Z,13.30
2022-11-25T11:03:14.545Z,13.70
2022-11-25T11:05:46.816Z,14.30
2022-11-25T11:08:13.646Z,14.30
2022-11-25T11:10:40.847Z,14.60
2022-11-25T11:13:30.664Z,15.20
2022-11-25T11:15:57.753Z,16.00
2022-11-25T11:18:29.427Z,16.50
2022-11-25T11:20:57.816Z,16.30
2022-11-25T11:23:25.329Z,16.10
2022-11-25T11:25:56.703Z,15.90
2022-11-25T11:28:36.219Z,15.80
2022-11-25T11:31:03.379Z,15.70
2022-11-25T11:33:33.232Z,15.30
2022-11-25T11:36:29.482Z,15.40
2022-11-25T11:39:01.624Z,15.20
2022-11-25T11:41:31.604Z,14.70
2022-11-25T11:44:04.988Z,14.80
2022-11-25T11:46:31.754Z,14.70
2022-11-25T11:49:20.290Z,14.40
2022-11-25T11:51:53.030Z,14.00
2022-11-25T11:54:31.791Z,13.60
2022-11-25T11:57:23.369Z,13.60
2022-11-25T11:59:53.388Z,13.40
2022-11-25T12:02:24.333Z,13.20
2022-11-25T12:04:53.353Z,13.00
2022-11-25T12:07:34.913Z,13.00
2022-11-25T12:10:17.868Z,13.00
2022-11-25T12:12:53.846Z,13.10
2022-11-25T12:15:20.574Z,13.30
2022-11-25T12:17:50.129Z,13.40
2022-11-25T12:20:34.799Z,13.30
2022-11-25T12:23:03.866Z,13.10
2022-11-25T12:28:15.376Z,13.00
2022-11-25T12:30:50.373Z,13.00
2022-11-25T12:33:21.768Z,13.00
2022-11-25T12:36:14.727Z,12.90
2022-11-25T12:38:47.128Z,12.90
2022-11-25T12:41:13.907Z,12.90
2022-11-25T12:43:46.625Z,13.10
2022-11-25T12:46:47.390Z,13.00
2022-11-25T12:49:17.109Z,12.80
2022-11-25T12:51:55.949Z,12.50
2022-11-25T12:54:22.742Z,12.40
2022-11-25T12:56:58.390Z,12.30
2022-11-25T13:07:35.648Z,12.10
2022-11-25T13:10:05.805Z,12.10
2022-11-25T13:12:41.914Z,12.20
2022-11-25T13:15:12.422Z,12.30
2022-11-25T13:17:43.634Z,12.30
2022-11-25T13:20:28.976Z,12.20
2022-11-25T13:25:43.189Z,12.10
2022-11-25T13:28:28.417Z,12.10
2022-11-25T13:30:55.482Z,12.10
2022-11-25T13:33:34.730Z,12.20
2022-11-25T13:36:18.353Z,12.20
2022-11-25T13:38:51.222Z,12.30
2022-11-25T13:41:24.057Z,12.30
2022-11-25T13:43:53.892Z,12.30
2022-11-25T13:46:47.199Z,12.20
2022-11-25T13:49:32.809Z,12.20
2022-11-25T13:52:22.518Z,12.30
2022-11-25T13:54:53.847Z,12.40
2022-11-25T13:57:31.386Z,12.40
2022-11-25T14:00:00.197Z,12.30
2022-11-25T14:02:34.246Z,12.30
2022-11-25T14:05:20.353Z,12.30
2022-11-25T14:08:08.223Z,12.50
2022-11-25T14:10:54.079Z,12.90
2022-11-25T14:13:39.882Z,13.00
2022-11-25T14:16:18.928Z,13.10
2022-11-25T14:19:21.677Z,13.30
2022-11-25T14:21:51.050Z,13.40
2022-11-25T14:24:38.884Z,13.30
2022-11-25T14:27:12.201Z,13.00
2022-11-25T14:29:44.739Z,12.70
2022-11-25T14:32:30.579Z,12.50
2022-11-25T14:35:02.162Z,12.30
2022-11-25T14:37:39.282Z,12.20
2022-11-25T14:40:06.016Z,12.10
2022-11-25T14:42:35.191Z,11.90
2022-11-25T14:45:03.225Z,11.80
2022-11-25T14:47:35.957Z,11.60
2022-11-25T14:50:33.567Z,11.50
2022-11-25T14:52:59.349Z,11.40
2022-11-25T14:55:31.028Z,11.40
2022-11-25T14:58:00.745Z,11.30
2022-11-25T15:00:27.562Z,11.30
2022-11-25T15:02:58.914Z,11.30
2022-11-25T15:05:27.636Z,11.20
2022-11-25T15:08:09.676Z,11.20
2022-11-25T15:10:41.478Z,11.10
2022-11-25T15:13:24.689Z,11.00
2022-11-25T15:15:52.632Z,10.90
2022-11-25T15:18:22.078Z,10.80
2022-11-25T15:20:50.241Z,10.80
2022-11-25T15:23:20.708Z,10.70
2022-11-25T15:25:51.829Z,10.70
2022-11-25T15:28:18.756Z,10.60
2022-11-25T15:30:58.762Z,10.60
2022-11-25T15:33:26.487Z,10.50
2022-11-25T15:35:53.220Z,10.40
2022-11-25T15:38:34.369Z,10.40
2022-11-25T15:41:05.315Z,10.50
2022-11-25T15:43:32.601Z,10.40
2022-11-25T15:46:04.020Z,10.40
2022-11-25T15:48:38.190Z,10.30
2022-11-25T15:51:07.107Z,10.20
2022-11-25T15:53:37.611Z,10.00
2022-11-25T15:56:06.075Z,9.90
2022-11-25T15:58:32.813Z,9.80
2022-11-25T16:01:19.784Z,9.70
2022-11-25T16:03:46.755Z,9.60
2022-11-25T16:06:24.005Z,9.50
2022-11-25T16:08:53.802Z,9.40
2022-11-25T16:11:20.849Z,9.30
2022-11-25T16:13:48.612Z,9.30
2022-11-25T16:16:16.822Z,9.20
2022-11-25T16:18:49.753Z,9.10
2022-11-25T16:21:18.529Z,9.00
2022-11-25T16:23:52.793Z,9.00
2022-11-25T16:26:24.381Z,8.90
2022-11-25T16:28:54.823Z,8.80
2022-11-25T16:31:21.601Z,8.80
2022-11-25T16:33:48.457Z,8.70
2022-11-25T16:36:15.331Z,8.60
2022-11-25T16:38:42.170Z,8.60
2022-11-25T16:41:10.546Z,8.60
2022-11-25T16:43:39.459Z,8.60
2022-11-25T16:46:06.626Z,8.50
2022-11-25T16:48:33.377Z,8.40
2022-11-25T16:51:00.589Z,8.40
2022-11-25T16:53:27.385Z,8.30
2022-11-25T16:55:54.280Z,8.20
2022-11-25T16:58:22.818Z,8.20
2022-11-25T17:00:54.292Z,8.10
2022-11-25T17:03:22.282Z,8.10
2022-11-25T17:05:49.157Z,8.10
2022-11-25T17:08:18.738Z,8.00
2022-11-25T17:10:45.856Z,8.00
2022-11-25T17:13:23.400Z,7.90
2022-11-25T17:15:50.225Z,7.90
2022-11-25T17:18:21.754Z,7.80
2022-11-25T17:20:48.444Z,7.80
2022-11-25T17:23:16.317Z,7.80
2022-11-25T17:25:45.439Z,7.70
2022-11-25T17:28:21.353Z,7.70
2022-11-25T17:30:48.164Z,7.60
2022-11-25T17:33:16.370Z,7.50
2022-11-25T17:35:46.273Z,7.40
2022-11-25T17:38:20.486Z,7.40
2022-11-25T17:40:47.352Z,7.40
2022-11-25T17:43:19.825Z,7.40
2022-11-25T17:45:51.708Z,7.30
2022-11-25T17:48:18.645Z,7.40
2022-11-25T17:50:46.967Z,7.30
2022-11-25T17:53:13.856Z,7.30
2022-11-25T17:55:40.909Z,7.30
2022-11-25T17:58:10.188Z,7.30
2022-11-25T18:00:37.189Z,7.20
2022-11-25T18:03:09.885Z,7.20
2022-11-25T18:05:39.122Z,7.20
2022-11-25T18:08:06.095Z,7.10
2022-11-25T18:10:33.275Z,7.10
2022-11-25T18:13:00.232Z,7.10
2022-11-25T18:15:28.523Z,7.00
2022-11-25T18:18:04.069Z,6.90
2022-11-25T18:20:32.952Z,6.90
2022-11-25T18:23:00.461Z,6.80
2022-11-25T18:25:29.339Z,6.80
2022-11-25T18:27:56.583Z,6.70
2022-11-25T18:30:25.758Z,6.70
2022-11-25T18:32:52.718Z,6.60
2022-11-25T18:35:20.790Z,6.60
2022-11-25T18:37:51.614Z,6.60
2022-11-25T18:40:20.693Z,6.60
2022-11-25T18:42:50.455Z,6.50
2022-11-25T18:45:26.102Z,6.50
2022-11-25T18:47:53.142Z,6.50
2022-11-25T18:50:23.979Z,6.40
2022-11-25T18:52:51.426Z,6.40
2022-11-25T18:55:19.080Z,6.40
2022-11-25T18:57:52.020Z,6.50
2022-11-25T19:00:32.133Z,6.50
2022-11-25T19:02:59.577Z,6.40
2022-11-25T19:05:47.905Z,6.40
2022-11-25T19:08:14.776Z,6.30
2022-11-25T19:10:44.284Z,6.30
2022-11-25T19:13:30.219Z,6.30
2022-11-25T19:16:01.135Z,6.30
2022-11-25T19:18:31.016Z,6.20
2022-11-25T19:20:58.478Z,6.20
2022-11-25T19:23:25.764Z,6.20
2022-11-25T19:25:53.665Z,6.30
2022-11-25T19:28:20.951Z,6.30
2022-11-25T19:30:50.546Z,6.40
2022-11-25T19:33:43.803Z,6.30
2022-11-25T19:36:16.005Z,6.40
2022-11-25T19:38:43.875Z,6.30
2022-11-25T19:41:10.521Z,6.30
2022-11-25T19:43:37.462Z,6.20
2022-11-25T19:46:04.283Z,6.20
2022-11-25T19:48:35.823Z,6.20
2022-11-25T19:51:07.618Z,6.20
2022-11-25T19:53:34.599Z,6.20
2022-11-25T19:56:04.958Z,6.20
2022-11-25T19:58:32.100Z,6.10
2022-11-25T20:01:01.480Z,6.10
2022-11-25T20:03:43.844Z,6.10
2022-11-25T20:06:14.920Z,6.10
2022-11-25T20:08:41.840Z,6.10
2022-11-25T20:11:11.953Z,6.10
2022-11-25T20:13:38.909Z,6.00
2022-11-25T20:16:12.437Z,6.00
2022-11-25T20:18:39.411Z,6.00
2022-11-25T20:21:09.262Z,6.00
2022-11-25T20:23:43.269Z,6.00
2022-11-25T20:26:31.125Z,6.00
2022-11-25T20:28:57.867Z,6.00
2022-11-25T20:31:30.171Z,5.90
2022-11-25T20:33:57.674Z,5.90
2022-11-25T20:36:28.938Z,5.90
2022-11-25T20:38:56.461Z,5.90
2022-11-25T20:41:27.657Z,5.90
2022-11-25T20:43:57.990Z,5.90
2022-11-25T20:46:32.237Z,5.80
2022-11-25T20:49:01.648Z,5.80
2022-11-25T20:51:28.548Z,5.80
2022-11-25T20:53:56.423Z,5.80
2022-11-25T20:56:24.507Z,5.70
2022-11-25T20:58:51.565Z,5.70
2022-11-25T21:01:25.301Z,5.60
2022-11-25T21:03:52.264Z,5.50
2022-11-25T21:06:25.904Z,5.50
2022-11-25T21:08:53.146Z,5.40
2022-11-25T21:11:20.458Z,5.40
2022-11-25T21:14:07.138Z,5.30
2022-11-25T21:16:33.858Z,5.30
2022-11-25T21:19:02.875Z,5.30
2022-11-25T21:21:31.784Z,5.30
2022-11-25T21:24:05.264Z,5.30
2022-11-25T21:26:32.112Z,5.20
2022-11-25T21:28:59.099Z,5.20
2022-11-25T21:31:28.305Z,5.20
2022-11-25T21:33:57.304Z,5.20
2022-11-25T21:36:26.856Z,5.10
2022-11-25T21:38:57.296Z,5.20
2022-11-25T21:41:23.959Z,5.10
2022-11-25T21:43:50.920Z,5.10
2022-11-25T21:46:22.849Z,5.10
2022-11-25T21:49:00.917Z,5.20
2022-11-25T21:51:30.628Z,5.10
2022-11-25T21:54:25.012Z,5.10
2022-11-25T21:56:57.139Z,5.10
2022-11-25T21:59:23.943Z,5.00
2022-11-25T22:01:59.266Z,5.00
2022-11-25T22:04:26.026Z,5.00
2022-11-25T22:06:53.311Z,4.90
2022-11-25T22:09:20.051Z,5.00
2022-11-25T22:11:50.602Z,5.00
2022-11-25T22:14:27.207Z,5.00
2022-11-25T22:16:54.610Z,5.00
2022-11-25T22:19:22.364Z,5.00
2022-11-25T22:21:49.310Z,5.00
2022-11-25T22:24:16.823Z,5.00
2022-11-25T22:26:44.443Z,5.00
2022-11-25T22:29:21.357Z,5.00
2022-11-25T22:31:51.275Z,4.90
2022-11-25T22:34:25.108Z,4.90
2022-11-25T22:36:54.672Z,4.90
2022-11-25T22:39:28.397Z,4.90
2022-11-25T22:42:01.645Z,4.90
2022-11-25T22:44:48.668Z,4.90
2022-11-25T22:47:36.199Z,4.90
2022-11-25T22:50:04.699Z,4.90
2022-11-25T22:52:33.256Z,4.90
2022-11-25T22:55:02.258Z,4.90
2022-11-25T22:57:29.081Z,4.90
2022-11-25T22:59:55.759Z,4.90
2022-11-25T23:02:27.650Z,4.90
2022-11-25T23:04:56.393Z,4.90
2022-11-25T23:07:23.664Z,4.80
2022-11-25T23:09:50.870Z,4.90
2022-11-25T23:12:17.732Z,4.80
2022-11-25T23:14:44.678Z,4.80
2022-11-25T23:17:17.653Z,4.80
2022-11-25T23:19:44.612Z,4.80
2022-11-25T23:22:11.548Z,4.80
2022-11-25T23:24:48.070Z,4.80
2022-11-25T23:27:16.156Z,4.80
2022-11-25T23:29:43.074Z,4.80
2022-11-25T23:32:18.560Z,4.80
2022-11-25T23:34:49.767Z,4.90
2022-11-25T23:37:18.743Z,4.80
2022-11-25T23:39:50.188Z,4.80
2022-11-25T23:42:17.597Z,4.90
2022-11-25T23:44:50.370Z,4.90
2022-11-25T23:47:22.172Z,4.80
2022-11-25T23:49:50.624Z,4.80
2022-11-25T23:52:25.340Z,4.80
2022-11-25T23:54:52.671Z,4.80
2022-11-25T23:57:19.364Z,4.80
2022-11-25T23:59:47.741Z,4.80
